createdAt,value
2018-06-10T00:00:05.101Z,19.40
2018-06-10T00:02:33.226Z,18.42
2018-06-10T00:05:01.419Z,17.67
2018-06-10T00:07:29.504Z,19.57
2018-06-10T00:09:57.891Z,19.73
2018-06-10T00:12:26.035Z,18.80
2018-06-10T00:14:54.145Z,30.13
2018-06-10T00:17:23.867Z,18.60
2018-06-10T00:19:52.481Z,20.44
2018-06-10T00:22:20.576Z,20.43
2018-06-10T00:24:48.695Z,22.10
2018-06-10T00:27:17.051Z,21.20
2018-06-10T00:29:45.196Z,23.07
2018-06-10T00:32:13.381Z,22.20
2018-06-10T00:34:41.508Z,23.60
2018-06-10T00:37:09.735Z,23.00
2018-06-10T00:39:38.060Z,23.30
2018-06-10T00:42:06.171Z,24.53
2018-06-10T00:44:35.424Z,22.45
2018-06-10T00:47:04.365Z,22.27
2018-06-10T00:49:32.318Z,24.17
2018-06-10T00:52:01.313Z,23.20
2018-06-10T00:54:30.287Z,23.77
2018-06-10T00:56:59.182Z,23.75
2018-06-10T00:59:28.828Z,22.90
2018-06-10T01:01:57.813Z,21.57
2018-06-10T01:04:26.873Z,22.20
2018-06-10T01:06:55.848Z,23.07
2018-06-10T01:09:24.711Z,21.60
2018-06-10T01:11:52.855Z,21.93
2018-06-10T01:14:21.146Z,21.77
2018-06-10T01:16:49.315Z,21.63
2018-06-10T01:19:18.696Z,21.57
2018-06-10T01:21:47.267Z,23.20
2018-06-10T01:24:15.367Z,22.13
2018-06-10T01:26:48.920Z,20.60
2018-06-10T01:29:17.294Z,21.90
2018-06-10T01:31:45.447Z,20.17
2018-06-10T01:34:13.491Z,19.93
2018-06-10T01:36:41.660Z,21.90
2018-06-10T01:39:09.787Z,22.73
2018-06-10T01:41:37.836Z,21.67
2018-06-10T01:44:06.069Z,20.80
2018-06-10T01:46:34.215Z,20.40
2018-06-10T01:49:02.368Z,20.60
2018-06-10T01:51:30.456Z,19.90
2018-06-10T01:53:58.515Z,19.70
2018-06-10T01:56:26.638Z,19.27
2018-06-10T01:58:54.730Z,20.45
2018-06-10T02:01:22.807Z,20.43
2018-06-10T02:03:51.949Z,21.67
2018-06-10T02:06:20.049Z,21.80
2018-06-10T02:08:48.115Z,21.03
2018-06-10T02:11:16.208Z,22.73
2018-06-10T02:13:44.325Z,23.60
2018-06-10T02:16:12.429Z,22.40
2018-06-10T02:18:40.554Z,22.50
2018-06-10T02:21:08.700Z,24.17
2018-06-10T02:23:36.864Z,25.90
2018-06-10T02:26:04.933Z,26.20
2018-06-10T02:28:33.115Z,24.70
2018-06-10T02:31:01.219Z,26.93
2018-06-10T02:33:29.364Z,27.23
2018-06-10T02:35:57.522Z,26.93
2018-06-10T02:38:25.659Z,27.90
2018-06-10T02:40:53.827Z,29.20
2018-06-10T02:43:22.599Z,27.73
2018-06-10T02:45:50.807Z,28.23
2018-06-10T02:48:18.961Z,27.97
2018-06-10T02:50:47.770Z,27.65
2018-06-10T02:53:15.931Z,28.40
2018-06-10T02:55:44.065Z,30.03
2018-06-10T02:58:12.156Z,29.37
2018-06-10T03:00:40.273Z,28.33
2018-06-10T03:03:08.441Z,30.00
2018-06-10T03:05:36.580Z,28.50
2018-06-10T03:08:04.778Z,30.43
2018-06-10T03:10:32.880Z,31.53
2018-06-10T03:13:01.005Z,30.63
2018-06-10T03:15:29.218Z,32.13
2018-06-10T03:17:57.456Z,31.90
2018-06-10T03:20:25.587Z,31.40
2018-06-10T03:22:53.718Z,33.85
2018-06-10T03:25:21.885Z,34.17
2018-06-10T03:27:50.064Z,35.53
2018-06-10T03:30:18.220Z,36.07
2018-06-10T03:32:46.311Z,34.60
2018-06-10T03:35:14.383Z,32.70
2018-06-10T03:37:42.472Z,34.10
2018-06-10T03:40:10.799Z,33.57
2018-06-10T03:42:38.855Z,34.87
2018-06-10T03:45:06.939Z,35.40
2018-06-10T03:47:35.042Z,33.20
2018-06-10T03:50:03.082Z,34.92
2018-06-10T03:52:31.150Z,33.98
2018-06-10T03:54:59.247Z,32.53
2018-06-10T03:57:27.317Z,33.77
2018-06-10T03:59:55.401Z,33.13
2018-06-10T04:02:23.487Z,35.50
2018-06-10T04:04:51.554Z,34.10
2018-06-10T04:07:19.771Z,34.70
2018-06-10T04:09:47.955Z,35.83
2018-06-10T04:12:17.043Z,35.53
2018-06-10T04:14:45.164Z,34.23
2018-06-10T04:17:13.210Z,34.40
2018-06-10T04:19:41.488Z,36.13
2018-06-10T04:22:09.539Z,34.97
2018-06-10T04:24:37.636Z,37.30
2018-06-10T04:27:05.683Z,37.63
2018-06-10T04:29:34.237Z,34.93
2018-06-10T04:32:02.283Z,36.67
2018-06-10T04:34:30.423Z,37.33
2018-06-10T04:36:58.597Z,39.63
2018-06-10T04:39:26.674Z,36.40
2018-06-10T04:41:54.908Z,39.33
2018-06-10T04:44:22.984Z,37.38
2018-06-10T04:46:51.096Z,38.90
2018-06-10T04:49:19.276Z,38.83
2018-06-10T04:51:48.142Z,36.77
2018-06-10T04:54:16.231Z,34.37
2018-06-10T04:56:44.286Z,34.93
2018-06-10T04:59:12.341Z,34.33
2018-06-10T05:01:40.434Z,35.10
2018-06-10T05:04:08.538Z,35.20
2018-06-10T05:06:36.683Z,34.53
2018-06-10T05:09:06.502Z,35.33
2018-06-10T05:11:34.603Z,31.77
2018-06-10T05:14:02.701Z,32.53
2018-06-10T05:16:30.841Z,31.68
2018-06-10T05:18:59.034Z,36.10
2018-06-10T05:21:27.089Z,32.65
2018-06-10T05:23:55.193Z,32.47
2018-06-10T05:26:23.297Z,32.40
2018-06-10T05:28:51.500Z,32.00
2018-06-10T05:31:19.544Z,32.33
2018-06-10T05:33:49.179Z,31.73
2018-06-10T05:55:32.278Z,30.50
2018-06-10T05:58:00.391Z,27.53
2018-06-10T06:00:28.880Z,29.13
2018-06-10T06:02:56.912Z,27.83
2018-06-10T06:05:24.989Z,27.57
2018-06-10T06:07:53.042Z,25.40
2018-06-10T06:10:21.164Z,25.63
2018-06-10T06:12:49.212Z,25.03
2018-06-10T06:15:17.290Z,23.77
2018-06-10T06:17:45.375Z,23.97
2018-06-10T06:20:13.461Z,24.17
2018-06-10T06:22:41.597Z,24.83
2018-06-10T06:25:09.668Z,22.87
2018-06-10T06:27:37.742Z,22.20
2018-06-10T06:30:05.803Z,21.33
2018-06-10T06:32:33.853Z,21.60
2018-06-10T06:35:01.986Z,22.00
2018-06-10T06:37:30.063Z,22.50
2018-06-10T06:39:58.146Z,21.17
2018-06-10T06:42:27.063Z,21.30
2018-06-10T06:44:55.165Z,23.27
2018-06-10T06:47:23.259Z,22.90
2018-06-10T06:49:51.312Z,23.47
2018-06-10T06:52:19.383Z,21.97
2018-06-10T06:54:47.551Z,21.70
2018-06-10T06:57:15.694Z,22.10
2018-06-10T06:59:43.778Z,20.13
2018-06-10T07:02:11.962Z,20.97
2018-06-10T07:04:42.456Z,22.23
2018-06-10T07:07:10.583Z,23.20
2018-06-10T07:09:38.656Z,22.13
2018-06-10T07:12:06.765Z,21.53
2018-06-10T07:14:35.185Z,22.03
2018-06-10T07:17:03.623Z,21.82
2018-06-10T07:19:31.752Z,23.40
2018-06-10T07:21:59.814Z,21.27
2018-06-10T07:24:28.865Z,23.30
2018-06-10T07:26:57.194Z,20.20
2018-06-10T07:29:25.272Z,23.35
2018-06-10T07:31:53.946Z,22.45
2018-06-10T07:34:22.575Z,20.50
2018-06-10T07:36:50.702Z,21.90
2018-06-10T07:39:19.010Z,22.60
2018-06-10T07:41:47.825Z,23.30
2018-06-10T07:44:15.910Z,24.87
2018-06-10T07:46:43.992Z,24.97
2018-06-10T07:49:12.201Z,22.83
2018-06-10T07:51:40.694Z,25.03
2018-06-10T07:54:08.831Z,25.53
2018-06-10T07:56:51.155Z,22.20
2018-06-10T07:59:29.472Z,25.30
2018-06-10T08:01:57.909Z,22.80
2018-06-10T08:04:26.567Z,24.23
2018-06-10T08:06:54.778Z,23.10
2018-06-10T08:09:24.403Z,23.93
2018-06-10T08:11:52.599Z,21.93
2018-06-10T08:14:20.633Z,22.60
2018-06-10T08:16:49.223Z,22.80
2018-06-10T08:19:17.286Z,24.27
2018-06-10T08:21:45.408Z,24.50
2018-06-10T08:24:13.568Z,25.57
2018-06-10T08:26:41.640Z,23.57
2018-06-10T08:29:10.089Z,23.50
2018-06-10T08:31:38.183Z,24.27
2018-06-10T08:34:06.267Z,26.00
2018-06-10T08:36:34.399Z,26.23
2018-06-10T08:39:02.694Z,23.70
2018-06-10T08:41:30.781Z,23.70
2018-06-10T08:43:58.950Z,22.20
2018-06-10T08:46:26.923Z,22.83
2018-06-10T08:48:55.732Z,23.10
2018-06-10T08:51:24.013Z,22.22
2018-06-10T08:53:52.578Z,19.33
2018-06-10T08:56:20.918Z,19.20
2018-06-10T08:58:49.607Z,21.68
2018-06-10T09:01:17.885Z,19.30
2018-06-10T09:03:46.003Z,19.70
2018-06-10T09:06:14.186Z,22.17
2018-06-10T09:08:42.963Z,20.73
2018-06-10T09:11:11.102Z,19.40
2018-06-10T09:13:39.210Z,19.10
2018-06-10T09:16:07.300Z,19.97
2018-06-10T09:18:35.403Z,21.97
2018-06-10T09:21:03.478Z,21.13
2018-06-10T09:23:31.574Z,22.67
2018-06-10T09:25:59.767Z,20.40
2018-06-10T09:28:27.917Z,22.00
2018-06-10T09:30:56.043Z,21.42
2018-06-10T09:33:24.135Z,21.65
2018-06-10T09:35:52.343Z,20.67
2018-06-10T09:38:20.491Z,17.80
2018-06-10T09:40:49.682Z,18.60
2018-06-10T09:46:10.222Z,20.63
2018-06-10T09:48:38.450Z,21.50
2018-06-10T09:51:06.743Z,21.45
2018-06-10T09:53:35.682Z,21.93
2018-06-10T09:56:03.845Z,21.40
2018-06-10T09:58:32.050Z,21.10
2018-06-10T10:01:00.215Z,21.07
2018-06-10T10:03:28.388Z,22.53
2018-06-10T10:05:56.554Z,21.40
2018-06-10T10:08:25.235Z,18.85
2018-06-10T10:10:53.415Z,21.03
2018-06-10T10:13:21.739Z,19.27
2018-06-10T10:15:50.197Z,19.50
2018-06-10T10:18:18.459Z,20.20
2018-06-10T10:20:46.786Z,18.73
2018-06-10T10:23:14.935Z,18.27
2018-06-10T10:25:43.036Z,21.47
2018-06-10T10:28:11.499Z,22.30
2018-06-10T10:30:39.617Z,21.50
2018-06-10T10:33:07.775Z,18.10
2018-06-10T10:35:37.418Z,19.07
2018-06-10T10:38:05.731Z,18.02
2018-06-10T10:40:33.868Z,18.20
2018-06-10T10:43:02.129Z,17.90
2018-06-10T10:45:30.320Z,17.65
2018-06-10T10:47:58.473Z,17.10
2018-06-10T10:50:26.604Z,16.23
2018-06-10T10:52:54.739Z,15.77
2018-06-10T10:55:23.197Z,16.00
2018-06-10T10:57:51.279Z,15.07
2018-06-10T11:00:21.461Z,16.13
2018-06-10T11:02:50.062Z,15.07
2018-06-10T11:05:19.910Z,16.40
2018-06-10T11:07:48.019Z,15.03
2018-06-10T11:10:16.142Z,14.30
2018-06-10T11:12:44.583Z,15.27
2018-06-10T11:15:12.751Z,12.90
2018-06-10T11:17:41.589Z,15.03
2018-06-10T11:20:10.079Z,13.60
2018-06-10T11:22:38.182Z,13.43
2018-06-10T11:25:07.501Z,13.80
2018-06-10T11:27:36.099Z,13.28
2018-06-10T11:30:04.259Z,12.77
2018-06-10T11:32:32.455Z,12.30
2018-06-10T11:35:00.825Z,12.73
2018-06-10T11:37:29.125Z,13.28
2018-06-10T11:39:57.287Z,12.80
2018-06-10T11:42:25.530Z,12.75
2018-06-10T11:44:53.674Z,11.47
2018-06-10T11:47:22.132Z,11.70
2018-06-10T11:49:51.319Z,12.57
2018-06-10T11:52:20.940Z,11.10
2018-06-10T11:54:49.624Z,11.37
2018-06-10T11:57:17.786Z,10.57
2018-06-10T11:59:47.942Z,9.90
2018-06-10T12:02:16.195Z,10.23
2018-06-10T12:04:44.343Z,11.13
2018-06-10T12:07:12.488Z,8.97
2018-06-10T12:09:40.652Z,9.50
2018-06-10T12:12:08.844Z,9.50
2018-06-10T12:14:37.205Z,8.60
2018-06-10T12:17:05.901Z,9.57
2018-06-10T12:19:35.382Z,8.05
2018-06-10T12:22:04.578Z,9.07
2018-06-10T12:24:32.864Z,8.40
2018-06-10T12:27:00.973Z,9.43
2018-06-10T12:29:29.346Z,8.40
2018-06-10T12:31:57.659Z,8.73
2018-06-10T12:34:25.938Z,8.50
2018-06-10T12:36:54.108Z,8.07
2018-06-10T12:39:22.398Z,7.00
2018-06-10T12:41:50.821Z,7.22
2018-06-10T12:44:20.340Z,7.50
2018-06-10T12:46:49.475Z,7.63
2018-06-10T12:49:18.634Z,7.30
2018-06-10T12:51:46.730Z,6.80
2018-06-10T12:54:15.976Z,7.50
2018-06-10T12:56:44.611Z,6.90
2018-06-10T12:59:12.703Z,6.30
2018-06-10T13:01:40.821Z,5.08
2018-06-10T13:04:09.257Z,7.90
2018-06-10T13:06:37.417Z,6.25
2018-06-10T13:09:07.695Z,6.15
2018-06-10T13:11:36.083Z,5.60
2018-06-10T13:14:05.214Z,5.43
2018-06-10T13:16:33.363Z,5.70
2018-06-10T13:19:01.617Z,5.72
2018-06-10T13:21:29.937Z,5.70
2018-06-10T13:23:58.115Z,5.17
2018-06-10T13:26:27.020Z,5.80
2018-06-10T13:28:59.687Z,5.85
2018-06-10T13:31:27.872Z,6.10
2018-06-10T13:33:56.018Z,6.50
2018-06-10T13:36:24.224Z,6.10
2018-06-10T13:38:52.401Z,4.78
2018-06-10T13:41:20.992Z,5.37
2018-06-10T13:43:49.726Z,5.00
2018-06-10T13:46:17.885Z,5.58
2018-06-10T13:48:46.068Z,5.53
2018-06-10T13:51:14.324Z,5.53
2018-06-10T13:53:42.488Z,5.20
2018-06-10T13:56:10.902Z,6.17
2018-06-10T13:58:39.263Z,6.33
2018-06-10T14:01:07.585Z,6.08
2018-06-10T14:03:35.715Z,5.90
2018-06-10T14:06:03.970Z,5.67
2018-06-10T14:08:32.120Z,6.60
2018-06-10T14:11:00.332Z,6.30
2018-06-10T14:13:28.711Z,6.10
2018-06-10T14:15:57.964Z,6.25
2018-06-10T14:18:27.009Z,7.00
2018-06-10T14:20:55.339Z,6.07
2018-06-10T14:23:23.613Z,7.12
2018-06-10T14:25:51.945Z,6.67
2018-06-10T14:35:46.580Z,11.83
2018-06-10T14:38:16.820Z,8.60
2018-06-10T14:40:46.538Z,7.53
2018-06-10T14:43:15.643Z,7.83
2018-06-10T14:45:43.727Z,6.87
2018-06-10T14:48:11.850Z,7.73
2018-06-10T14:50:41.143Z,6.83
2018-06-10T14:53:09.299Z,7.50
2018-06-10T14:55:37.396Z,7.27
2018-06-10T14:58:05.976Z,7.47
2018-06-10T15:00:34.709Z,6.85
2018-06-10T15:03:02.816Z,7.67
2018-06-10T15:05:31.011Z,7.90
2018-06-10T15:07:59.522Z,7.33
2018-06-10T15:10:28.244Z,7.40
2018-06-10T15:12:56.371Z,9.33
2018-06-10T15:15:24.688Z,10.03
2018-06-10T15:17:53.368Z,10.20
2018-06-10T15:20:21.730Z,8.80
2018-06-10T15:22:49.881Z,8.97
2018-06-10T15:25:18.033Z,8.50
2018-06-10T15:27:46.202Z,8.20
2018-06-10T15:30:14.362Z,8.10
2018-06-10T15:32:42.503Z,7.60
2018-06-10T15:35:10.600Z,7.77
2018-06-10T15:37:38.710Z,7.50
2018-06-10T15:40:06.876Z,7.57
2018-06-10T15:42:35.273Z,7.10
2018-06-10T15:45:03.399Z,6.60
2018-06-10T15:47:31.663Z,6.57
2018-06-10T15:50:00.048Z,7.25
2018-06-10T15:52:28.193Z,6.95
2018-06-10T15:54:56.283Z,8.38
2018-06-10T15:57:24.470Z,7.65
2018-06-10T15:59:52.783Z,7.10
2018-06-10T16:02:21.765Z,7.33
2018-06-10T16:04:49.970Z,7.80
2018-06-10T16:07:18.079Z,7.77
2018-06-10T16:09:54.387Z,8.73
2018-06-10T16:12:22.535Z,33.90
2018-06-10T16:14:52.156Z,39.60
2018-06-10T16:17:20.341Z,11.37
2018-06-10T16:19:48.560Z,16.57
2018-06-10T16:22:16.675Z,7.87
2018-06-10T16:24:44.741Z,10.20
2018-06-10T16:27:13.024Z,9.77
2018-06-10T16:29:41.102Z,8.53
2018-06-10T16:32:09.369Z,10.82
2018-06-10T16:34:37.708Z,8.53
2018-06-10T16:37:05.863Z,11.03
2018-06-10T16:39:34.101Z,9.80
2018-06-10T16:42:03.360Z,9.00
2018-06-10T16:44:31.536Z,8.55
2018-06-10T16:46:59.645Z,8.73
2018-06-10T16:49:27.769Z,10.60
2018-06-10T16:51:55.900Z,8.83
2018-06-10T16:54:24.160Z,7.97
2018-06-10T16:56:52.758Z,8.20
2018-06-10T16:59:21.974Z,7.85
2018-06-10T17:01:50.188Z,8.03
2018-06-10T17:04:18.288Z,8.30
2018-06-10T17:06:46.420Z,8.07
2018-06-10T17:09:14.604Z,7.57
2018-06-10T17:11:42.907Z,8.17
2018-06-10T17:14:11.203Z,7.50
2018-06-10T17:16:39.387Z,7.80
2018-06-10T17:19:07.536Z,8.40
2018-06-10T17:21:35.653Z,8.37
2018-06-10T17:24:03.879Z,8.10
2018-06-10T17:26:32.014Z,8.10
2018-06-10T17:29:00.216Z,8.23
2018-06-10T17:31:28.354Z,8.10
2018-06-10T17:33:56.583Z,8.28
2018-06-10T17:36:24.909Z,8.53
2018-06-10T17:38:53.029Z,7.60
2018-06-10T17:41:22.015Z,6.43
2018-06-10T17:43:50.106Z,6.03
2018-06-10T17:46:18.218Z,6.67
2018-06-10T17:48:46.547Z,6.03
2018-06-10T17:51:14.740Z,7.10
2018-06-10T17:53:42.919Z,6.87
2018-06-10T17:56:10.989Z,6.83
2018-06-10T17:58:39.159Z,6.13
2018-06-10T18:01:07.292Z,5.63
2018-06-10T18:03:35.521Z,6.20
2018-06-10T18:06:03.696Z,6.67
2018-06-10T18:08:31.847Z,7.47
2018-06-10T18:11:00.012Z,6.87
2018-06-10T18:13:28.303Z,6.67
2018-06-10T18:15:56.556Z,6.30
2018-06-10T18:18:24.899Z,7.30
2018-06-10T18:20:53.045Z,7.40
2018-06-10T18:23:22.119Z,7.20
2018-06-10T18:25:50.466Z,8.80
2018-06-10T18:28:18.665Z,7.00
2018-06-10T18:30:47.291Z,8.00
2018-06-10T18:33:15.488Z,7.80
2018-06-10T18:35:43.570Z,8.17
2018-06-10T18:38:12.206Z,8.10
2018-06-10T18:40:40.286Z,8.00
2018-06-10T18:43:08.403Z,8.68
2018-06-10T18:45:37.947Z,8.20
2018-06-10T18:48:06.276Z,7.75
2018-06-10T18:50:34.534Z,8.30
2018-06-10T18:53:02.617Z,8.40
2018-06-10T18:55:30.711Z,7.77
2018-06-10T18:57:59.049Z,8.18
2018-06-10T19:00:27.187Z,7.50
2018-06-10T19:02:55.446Z,8.53
2018-06-10T19:05:23.520Z,8.13
2018-06-10T19:07:52.353Z,9.83
2018-06-10T19:10:20.522Z,7.80
2018-06-10T19:12:48.676Z,7.80
2018-06-10T19:15:17.214Z,8.60
2018-06-10T19:17:45.304Z,10.00
2018-06-10T19:20:13.522Z,10.43
2018-06-10T19:22:41.652Z,11.30
2018-06-10T19:25:09.767Z,11.83
2018-06-10T19:27:38.050Z,11.57
2018-06-10T19:30:06.099Z,11.53
2018-06-10T19:32:34.254Z,12.18
2018-06-10T19:35:02.432Z,12.20
2018-06-10T19:37:30.706Z,12.40
2018-06-10T19:39:58.933Z,13.05
2018-06-10T19:42:28.571Z,11.60
2018-06-10T19:44:56.711Z,11.88
2018-06-10T19:47:24.915Z,11.73
2018-06-10T19:49:52.984Z,12.63
2018-06-10T19:52:21.049Z,11.90
2018-06-10T19:54:49.248Z,14.00
2018-06-10T19:57:17.536Z,12.60
2018-06-10T19:59:45.668Z,12.83
2018-06-10T20:02:13.748Z,11.70
2018-06-10T20:04:41.871Z,11.50
2018-06-10T20:07:10.063Z,11.83
2018-06-10T20:09:38.143Z,11.48
2018-06-10T20:12:06.238Z,11.53
2018-06-10T20:14:34.375Z,11.95
2018-06-10T20:17:03.338Z,11.93
2018-06-10T20:19:31.782Z,11.75
2018-06-10T20:22:00.801Z,12.23
2018-06-10T20:24:28.915Z,13.03
2018-06-10T20:26:57.157Z,13.08
2018-06-10T20:29:25.288Z,11.37
2018-06-10T20:31:53.443Z,12.17
2018-06-10T20:34:21.771Z,11.30
2018-06-10T20:36:49.932Z,12.87
2018-06-10T20:39:18.003Z,12.33
2018-06-10T20:41:46.137Z,11.47
2018-06-10T20:44:14.216Z,11.90
2018-06-10T20:46:42.403Z,11.70
2018-06-10T20:49:10.560Z,11.50
2018-06-10T20:51:38.820Z,11.50
2018-06-10T20:54:07.131Z,11.75
2018-06-10T20:56:35.450Z,12.10
2018-06-10T20:59:03.620Z,11.77
2018-06-10T21:01:31.687Z,10.90
2018-06-10T21:03:59.891Z,12.10
2018-06-10T21:06:28.014Z,11.60
2018-06-10T21:08:56.083Z,12.60
2018-06-10T21:11:24.199Z,11.20
2018-06-10T21:13:52.851Z,12.35
2018-06-10T21:16:21.049Z,12.80
2018-06-10T21:18:49.121Z,13.00
2018-06-10T21:21:17.317Z,11.23
2018-06-10T21:23:45.590Z,11.63
2018-06-10T21:26:13.696Z,10.97
2018-06-10T21:28:41.805Z,11.27
2018-06-10T21:31:09.952Z,10.68
2018-06-10T21:33:38.180Z,11.03
2018-06-10T21:36:06.323Z,11.15
2018-06-10T21:38:34.471Z,11.10
2018-06-10T21:41:03.236Z,10.60
2018-06-10T21:43:31.464Z,10.20
2018-06-10T21:46:00.757Z,11.20
2018-06-10T21:48:29.656Z,10.03
2018-06-10T21:50:57.911Z,10.38
2018-06-10T21:53:26.271Z,11.00
2018-06-10T21:55:54.662Z,14.63
2018-06-10T21:58:23.132Z,14.40
2018-06-10T22:00:51.627Z,11.73
2018-06-10T22:03:19.756Z,12.13
2018-06-10T22:05:47.951Z,12.90
2018-06-10T22:08:18.261Z,11.10
2018-06-10T22:10:46.605Z,14.00
2018-06-10T22:13:14.909Z,11.67
2018-06-10T22:15:43.153Z,11.30
2018-06-10T22:18:11.381Z,11.57
2018-06-10T22:20:39.629Z,12.07
2018-06-10T22:23:07.722Z,11.27
2018-06-10T22:25:37.262Z,10.87
2018-06-10T22:28:05.578Z,11.33
2018-06-10T22:30:33.716Z,10.93
2018-06-10T22:33:02.008Z,11.63
2018-06-10T22:35:30.348Z,10.73
2018-06-10T22:37:58.918Z,10.67
2018-06-10T22:40:27.145Z,10.43
2018-06-10T22:42:55.356Z,10.90
2018-06-10T22:45:23.443Z,11.13
2018-06-10T22:47:51.710Z,10.93
2018-06-10T22:50:19.835Z,9.97
2018-06-10T22:52:50.324Z,10.60
2018-06-10T22:55:18.503Z,10.90
2018-06-10T22:57:46.640Z,10.53
2018-06-10T23:00:14.924Z,10.13
2018-06-10T23:02:43.625Z,10.80
2018-06-10T23:05:12.005Z,10.53
2018-06-10T23:07:40.387Z,9.68
2018-06-10T23:10:08.765Z,10.80
2018-06-10T23:12:36.902Z,9.30
2018-06-10T23:15:05.441Z,28.33
2018-06-10T23:17:33.642Z,10.43
2018-06-10T23:20:02.256Z,10.43
2018-06-10T23:22:30.723Z,9.95
2018-06-10T23:24:58.845Z,9.17
2018-06-10T23:27:27.058Z,10.10
2018-06-10T23:29:55.146Z,9.80
2018-06-10T23:32:23.384Z,9.63
2018-06-10T23:34:51.534Z,9.03
2018-06-10T23:37:20.424Z,10.20
2018-06-10T23:39:48.546Z,10.70
2018-06-10T23:42:16.629Z,11.03
2018-06-10T23:44:44.783Z,10.50
2018-06-10T23:47:12.936Z,10.37
2018-06-10T23:49:41.040Z,10.27
2018-06-10T23:52:09.304Z,11.13
2018-06-10T23:54:37.812Z,10.35
2018-06-10T23:57:05.908Z,11.67
2018-06-10T23:59:34.368Z,11.20
